createdAt,value
2022-11-16T00:04:21.529Z,61.00
2022-11-16T00:09:27.175Z,61.00
2022-11-16T00:14:31.908Z,61.10
2022-11-16T00:19:34.875Z,61.10
2022-11-16T00:24:39.164Z,61.30
2022-11-16T00:29:42.114Z,61.50
2022-11-16T00:34:45.080Z,61.40
2022-11-16T00:39:49.712Z,61.60
2022-11-16T00:44:52.643Z,61.90
2022-11-16T00:49:55.589Z,62.00
2022-11-16T00:54:59.905Z,61.80
2022-11-16T01:00:04.193Z,61.80
2022-11-16T01:05:12.883Z,61.80
2022-11-16T01:10:19.568Z,62.00
2022-11-16T01:15:24.831Z,62.00
2022-11-16T01:20:30.238Z,61.80
2022-11-16T01:25:34.587Z,61.90
2022-11-16T01:30:37.595Z,62.00
2022-11-16T01:35:45.251Z,62.30
2022-11-16T01:40:53.466Z,62.60
2022-11-16T01:45:56.541Z,62.60
2022-11-16T01:51:00.203Z,62.30
2022-11-16T01:56:08.353Z,62.50
2022-11-16T02:01:29.704Z,62.70
2022-11-16T02:06:49.814Z,62.60
2022-11-16T02:12:09.855Z,62.60
2022-11-16T02:17:22.547Z,62.80
2022-11-16T02:22:41.879Z,63.00
2022-11-16T02:28:17.617Z,63.40
2022-11-16T02:33:26.785Z,63.30
2022-11-16T02:38:33.298Z,63.00
2022-11-16T02:43:39.430Z,63.40
2022-11-16T02:48:49.602Z,63.10
2022-11-16T02:54:01.134Z,63.10
2022-11-16T02:59:04.989Z,63.80
2022-11-16T03:04:15.673Z,63.20
2022-11-16T03:09:23.570Z,63.70
2022-11-16T03:14:32.459Z,63.10
2022-11-16T03:19:42.056Z,63.20
2022-11-16T03:24:46.065Z,63.50
2022-11-16T03:29:56.510Z,63.50
2022-11-16T03:35:04.954Z,63.90
2022-11-16T03:40:10.566Z,64.40
2022-11-16T03:45:15.027Z,64.80
2022-11-16T03:50:19.721Z,65.00
2022-11-16T03:55:22.793Z,65.30
2022-11-16T04:00:26.076Z,65.20
2022-11-16T04:05:48.343Z,65.50
2022-11-16T04:11:09.252Z,64.80
2022-11-16T04:16:30.290Z,64.60
2022-11-16T04:21:57.132Z,64.70
2022-11-16T04:27:25.914Z,65.20
2022-11-16T04:32:47.875Z,64.90
2022-11-16T04:37:53.855Z,64.70
2022-11-16T04:43:04.982Z,64.60
2022-11-16T04:48:16.412Z,64.40
2022-11-16T04:53:22.566Z,64.30
2022-11-16T04:58:33.945Z,64.20
2022-11-16T05:03:37.387Z,64.10
2022-11-16T05:08:41.913Z,64.20
2022-11-16T05:13:46.426Z,64.20
2022-11-16T05:19:10.336Z,64.20
2022-11-16T05:24:33.010Z,64.10
2022-11-16T05:29:37.613Z,64.10
2022-11-16T05:34:41.082Z,64.10
2022-11-16T05:39:46.414Z,64.00
2022-11-16T05:44:50.053Z,64.00
2022-11-16T05:49:53.838Z,63.90
2022-11-16T05:54:58.953Z,64.00
2022-11-16T06:00:05.833Z,64.90
2022-11-16T06:05:17.866Z,64.20
2022-11-16T06:10:23.509Z,64.90
2022-11-16T06:15:28.706Z,64.10
2022-11-16T06:20:31.765Z,64.00
2022-11-16T06:25:36.220Z,64.00
2022-11-16T06:30:40.626Z,64.70
2022-11-16T06:35:44.706Z,64.00
2022-11-16T06:40:54.911Z,63.90
2022-11-16T06:46:00.260Z,64.10
2022-11-16T06:51:03.637Z,64.10
2022-11-16T06:56:08.402Z,64.10
2022-11-16T07:01:19.176Z,64.20
2022-11-16T07:06:24.971Z,64.10
2022-11-16T07:11:29.408Z,64.00
2022-11-16T07:16:36.563Z,63.90
2022-11-16T07:21:41.438Z,63.90
2022-11-16T07:26:51.602Z,63.80
2022-11-16T07:31:59.371Z,63.80
2022-11-16T07:37:22.327Z,63.70
2022-11-16T07:42:26.769Z,63.50
2022-11-16T07:47:42.215Z,63.70
2022-11-16T07:52:50.482Z,63.80
2022-11-16T07:57:59.326Z,63.90
2022-11-16T08:03:02.745Z,64.10
2022-11-16T08:08:06.231Z,64.40
2022-11-16T08:13:12.989Z,64.50
2022-11-16T08:18:19.483Z,64.50
2022-11-16T08:23:23.639Z,64.40
2022-11-16T08:28:29.758Z,64.40
2022-11-16T08:33:32.847Z,64.20
2022-11-16T08:38:36.360Z,63.90
2022-11-16T08:43:41.319Z,63.70
2022-11-16T08:48:45.980Z,63.50
2022-11-16T08:53:49.688Z,63.50
2022-11-16T08:58:58.952Z,63.50
2022-11-16T09:04:02.599Z,63.60
2022-11-16T09:09:05.774Z,63.60
2022-11-16T09:14:10.394Z,63.70
2022-11-16T09:19:13.590Z,63.70
2022-11-16T09:24:17.200Z,63.80
2022-11-16T09:29:21.541Z,63.90
2022-11-16T09:34:24.638Z,63.80
2022-11-16T09:39:32.242Z,63.70
2022-11-16T09:44:52.124Z,64.00
2022-11-16T09:50:02.992Z,64.30
2022-11-16T09:55:26.140Z,64.30
2022-11-16T10:00:32.204Z,64.30
2022-11-16T10:05:42.175Z,64.10
2022-11-16T10:10:56.139Z,63.70
2022-11-16T10:16:07.877Z,63.50
2022-11-16T10:21:36.034Z,63.30
2022-11-16T10:26:45.348Z,63.10
2022-11-16T10:31:59.594Z,63.20
2022-11-16T10:37:08.347Z,63.10
2022-11-16T10:42:18.082Z,63.20
2022-11-16T10:47:29.488Z,63.40
2022-11-16T10:52:36.468Z,63.40
2022-11-16T10:57:56.157Z,63.50
2022-11-16T11:03:00.466Z,63.30
2022-11-16T11:08:05.719Z,63.50
2022-11-16T11:13:27.111Z,63.60
2022-11-16T11:18:31.378Z,63.40
2022-11-16T11:23:42.575Z,63.50
2022-11-16T11:28:50.536Z,63.10
2022-11-16T11:33:56.707Z,62.80
2022-11-16T11:39:03.175Z,62.60
2022-11-16T11:44:07.824Z,62.70
2022-11-16T11:49:19.296Z,62.80
2022-11-16T11:54:25.061Z,62.60
2022-11-16T11:59:28.671Z,62.70
2022-11-16T12:05:13.546Z,62.50
2022-11-16T12:10:26.213Z,62.30
2022-11-16T12:15:59.313Z,61.90
2022-11-16T12:21:11.746Z,60.00
2022-11-16T12:26:24.678Z,61.00
2022-11-16T12:31:53.697Z,60.60
2022-11-16T12:37:04.810Z,60.70
2022-11-16T12:42:36.266Z,60.60
2022-11-16T12:47:48.593Z,60.70
2022-11-16T12:53:10.459Z,61.20
2022-11-16T12:58:24.790Z,61.00
2022-11-16T13:03:37.709Z,61.30
2022-11-16T13:08:52.017Z,61.30
2022-11-16T13:14:02.032Z,61.20
2022-11-16T13:19:07.913Z,61.20
2022-11-16T13:24:25.596Z,61.30
2022-11-16T13:29:37.149Z,61.20
2022-11-16T13:34:41.507Z,61.40
2022-11-16T13:40:14.887Z,61.50
2022-11-16T13:45:21.659Z,60.90
2022-11-16T13:50:33.040Z,61.50
2022-11-16T13:55:42.111Z,61.60
2022-11-16T14:00:57.455Z,61.60
2022-11-16T14:06:00.477Z,61.70
2022-11-16T14:11:03.472Z,61.80
2022-11-16T14:16:48.173Z,62.00
2022-11-16T14:22:01.008Z,61.40
2022-11-16T14:27:13.154Z,61.40
2022-11-16T14:32:22.717Z,61.50
2022-11-16T14:37:34.070Z,61.70
2022-11-16T14:43:01.933Z,61.60
2022-11-16T14:48:16.872Z,61.80
2022-11-16T14:53:21.459Z,61.80
2022-11-16T14:58:24.722Z,61.70
2022-11-16T15:03:30.797Z,61.80
2022-11-16T15:08:39.567Z,62.00
2022-11-16T15:13:46.763Z,62.00
2022-11-16T15:19:00.606Z,62.00
2022-11-16T15:24:29.303Z,62.20
2022-11-16T15:29:28.544Z,62.20
2022-11-16T15:34:33.070Z,62.10
2022-11-16T15:39:37.630Z,62.10
2022-11-16T15:44:40.774Z,62.10
2022-11-16T15:49:49.537Z,62.30
2022-11-16T15:55:05.521Z,62.40
2022-11-16T16:00:23.538Z,62.40
2022-11-16T16:05:34.685Z,62.40
2022-11-16T16:10:38.999Z,62.50
2022-11-16T16:15:41.977Z,62.40
2022-11-16T16:20:49.661Z,62.50
2022-11-16T16:25:53.955Z,62.40
2022-11-16T16:30:56.963Z,62.30
2022-11-16T16:35:59.962Z,62.30
2022-11-16T16:41:06.470Z,62.40
2022-11-16T16:46:13.227Z,62.70
2022-11-16T16:51:16.153Z,62.70
2022-11-16T16:56:20.628Z,62.60
2022-11-16T17:01:23.699Z,63.30
2022-11-16T17:06:26.690Z,62.40
2022-11-16T17:11:31.239Z,62.40
2022-11-16T17:16:34.201Z,62.60
2022-11-16T17:21:37.171Z,62.70
2022-11-16T17:26:41.635Z,62.70
2022-11-16T17:31:47.175Z,63.40
2022-11-16T17:36:50.162Z,62.70
2022-11-16T17:41:54.483Z,62.60
2022-11-16T17:46:57.409Z,62.70
2022-11-16T17:52:01.625Z,62.60
2022-11-16T17:57:05.983Z,62.60
2022-11-16T18:02:11.500Z,62.70
2022-11-16T18:07:14.533Z,62.60
2022-11-16T18:12:18.900Z,62.60
2022-11-16T18:17:21.862Z,62.50
2022-11-16T18:22:24.783Z,62.50
2022-11-16T18:27:29.020Z,62.60
2022-11-16T18:32:33.442Z,62.90
2022-11-16T18:37:36.449Z,62.80
2022-11-16T18:42:41.634Z,62.70
2022-11-16T18:47:44.592Z,62.70
2022-11-16T18:52:47.635Z,62.90
2022-11-16T18:57:52.062Z,62.80
2022-11-16T19:02:55.044Z,62.90
2022-11-16T19:07:58.398Z,62.70
2022-11-16T19:13:04.741Z,63.00
2022-11-16T19:18:21.272Z,63.10
2022-11-16T19:23:25.946Z,63.20
2022-11-16T19:28:30.213Z,63.20
2022-11-16T19:33:33.436Z,63.30
2022-11-16T19:38:36.760Z,63.20
2022-11-16T19:43:43.718Z,63.30
2022-11-16T19:48:47.153Z,63.50
2022-11-16T19:53:50.604Z,63.30
2022-11-16T19:58:55.019Z,63.20
2022-11-16T20:03:59.698Z,63.30
2022-11-16T20:09:08.738Z,63.20
2022-11-16T20:14:14.796Z,63.30
2022-11-16T20:19:20.449Z,63.30
2022-11-16T20:24:23.475Z,63.30
2022-11-16T20:29:27.756Z,63.30
2022-11-16T20:34:30.974Z,63.30
2022-11-16T20:39:33.905Z,63.20
2022-11-16T20:44:38.252Z,63.10
2022-11-16T20:49:41.271Z,63.20
2022-11-16T20:54:44.201Z,63.20
2022-11-16T20:59:48.595Z,63.30
2022-11-16T21:04:54.759Z,63.30
2022-11-16T21:10:17.769Z,63.50
2022-11-16T21:15:22.405Z,63.40
2022-11-16T21:20:28.150Z,63.50
2022-11-16T21:25:31.486Z,63.30
2022-11-16T21:30:35.797Z,63.20
2022-11-16T21:35:38.728Z,63.20
2022-11-16T21:40:41.670Z,63.10
2022-11-16T21:45:47.430Z,63.00
2022-11-16T21:51:00.635Z,63.00
2022-11-16T21:56:04.377Z,62.90
2022-11-16T22:01:09.705Z,62.80
2022-11-16T22:06:32.619Z,62.70
2022-11-16T22:11:35.561Z,62.60
2022-11-16T22:16:39.905Z,63.00
2022-11-16T22:21:42.881Z,62.80
2022-11-16T22:26:45.843Z,62.80
2022-11-16T22:31:50.130Z,62.90
2022-11-16T22:36:53.136Z,63.00
2022-11-16T22:41:56.110Z,63.00
2022-11-16T22:47:00.423Z,63.10
2022-11-16T22:52:03.391Z,63.10
2022-11-16T22:57:06.498Z,63.20
2022-11-16T23:02:10.806Z,63.30
2022-11-16T23:07:13.766Z,63.30
2022-11-16T23:12:34.205Z,63.10
2022-11-16T23:17:38.538Z,63.20
2022-11-16T23:22:58.970Z,63.40
2022-11-16T23:28:06.674Z,63.20
2022-11-16T23:33:11.437Z,63.40
2022-11-16T23:38:14.446Z,63.20
2022-11-16T23:43:35.136Z,63.20
2022-11-16T23:48:39.708Z,63.30
2022-11-16T23:53:43.012Z,63.20
2022-11-16T23:58:46.357Z,63.30
